Time;durP1;ratioP1;P1;durP2;ratioP2;P2;SDS_P1;SDS_P2;PMS_P1;PMS_P2;Temp;Humidity;BMP_temperature;BMP_pressure;BME280_temperature;BME280_humidity;BME280_pressure;Samples;Min_cycle;Max_cycle;Signal;HPM_P1;HPM_P2
2022/04/20 00:02:57;;;;;;;41.25;22.42;;;;;;;1.85;92.42;98556.56;2344180;76;21024;-89
2022/04/20 00:05:59;;;;;;;40.00;21.87;;;;;;;1.85;93.03;98565.59;2344383;76;21081;-90
2022/04/20 00:09:01;;;;;;;38.50;21.20;;;;;;;1.78;91.95;98560.12;2344500;76;21578;-90
2022/04/20 00:12:03;;;;;;;34.98;20.00;;;;;;;1.75;92.30;98560.86;2344397;76;21030;-89
2022/04/20 00:15:04;;;;;;;37.42;21.30;;;;;;;1.84;92.77;98558.80;2344218;76;21022;-89
2022/04/20 00:18:06;;;;;;;39.42;21.48;;;;;;;1.87;92.68;98570.97;2344185;76;21031;-88
2022/04/20 00:21:08;;;;;;;28.45;18.02;;;;;;;1.90;92.51;98570.70;2344087;76;20979;-89
2022/04/20 00:24:10;;;;;;;43.60;21.62;;;;;;;1.93;92.49;98576.92;2344177;76;21045;-89
2022/04/20 00:27:11;;;;;;;50.08;23.70;;;;;;;1.92;91.73;98577.88;2344276;76;20976;-89
2022/04/20 00:30:13;;;;;;;41.50;22.25;;;;;;;1.94;92.55;98579.03;2344247;76;21499;-88
2022/04/20 00:33:15;;;;;;;37.25;20.92;;;;;;;2.02;92.51;98581.80;2344069;76;21580;-88
2022/04/20 00:36:17;;;;;;;57.93;26.68;;;;;;;1.99;91.56;98581.55;2344136;76;20950;-88
2022/04/20 00:39:19;;;;;;;60.85;28.20;;;;;;;1.90;91.89;98579.74;2344142;76;21399;-88
2022/04/20 00:42:21;;;;;;;51.37;26.57;;;;;;;1.87;91.80;98570.16;2344103;76;21032;-88
2022/04/20 00:45:22;;;;;;;42.50;23.73;;;;;;;1.77;91.70;98579.14;2344352;76;21009;-87
2022/04/20 00:48:24;;;;;;;40.17;22.60;;;;;;;1.83;92.79;98581.22;2344261;76;21017;-89
2022/04/20 00:51:26;;;;;;;37.28;22.50;;;;;;;1.88;92.85;98579.06;2344717;76;20988;-88
2022/04/20 00:54:28;;;;;;;36.53;22.07;;;;;;;1.97;93.02;98578.30;2344326;76;21033;-88
2022/04/20 00:57:30;;;;;;;38.42;20.90;;;;;;;2.12;93.68;98566.34;2343819;76;21064;-88
2022/04/20 01:00:31;;;;;;;35.28;21.27;;;;;;;2.21;92.93;98565.09;2344239;76;21556;-88
2022/04/20 01:03:33;;;;;;;39.50;21.30;;;;;;;2.24;92.77;98562.23;2344383;76;21564;-89
2022/04/20 01:06:35;;;;;;;43.42;23.10;;;;;;;2.23;92.39;98548.97;2344538;76;21068;-89
2022/04/20 01:09:37;;;;;;;37.73;21.97;;;;;;;2.25;92.65;98550.12;2344446;76;20946;-88
2022/04/20 01:12:38;;;;;;;50.88;24.23;;;;;;;2.21;92.27;98553.46;2344452;76;20961;-89
2022/04/20 01:15:40;;;;;;;45.03;21.77;;;;;;;2.16;92.99;98546.56;2344317;76;21495;-88
2022/04/20 01:18:43;;;;;;;37.25;22.55;;;;;;;2.06;92.68;98539.25;2344190;76;21551;-89
2022/04/20 01:21:45;;;;;;;41.37;23.92;;;;;;;1.98;92.61;98544.24;2344426;76;21037;-89
2022/04/20 01:24:46;;;;;;;42.73;24.43;;;;;;;1.93;93.57;98542.06;2344426;76;21576;-89
2022/04/20 01:27:48;;;;;;;49.27;23.35;;;;;;;1.92;93.67;98529.25;2344254;76;21499;-89
2022/04/20 01:30:50;;;;;;;48.70;25.05;;;;;;;1.86;94.01;98526.73;2344540;76;21541;-88
2022/04/20 01:33:52;;;;;;;36.50;21.35;;;;;;;1.64;93.97;98530.75;2344349;76;21040;-89
2022/04/20 01:36:53;;;;;;;54.77;28.45;;;;;;;1.60;94.95;98531.48;2344364;76;21060;-89
2022/04/20 01:39:55;;;;;;;45.23;23.50;;;;;;;1.66;95.91;98530.98;2344337;76;21307;-88
2022/04/20 01:42:57;;;;;;;43.68;24.72;;;;;;;1.64;95.12;98526.41;2343151;76;21013;-89
2022/04/20 01:45:59;;;;;;;42.62;24.15;;;;;;;1.64;95.07;98518.66;2341071;76;21468;-88
2022/04/20 01:49:01;;;;;;;49.30;26.05;;;;;;;1.63;95.36;98518.31;2340917;76;21628;-90
2022/04/20 01:52:03;;;;;;;52.20;28.07;;;;;;;1.66;95.58;98522.43;2341066;76;20954;-90
2022/04/20 01:55:05;;;;;;;50.43;27.25;;;;;;;1.64;95.31;98506.23;2341173;76;20990;-89
2022/04/20 01:58:06;;;;;;;62.70;30.88;;;;;;;1.60;95.24;98506.16;2341235;76;21004;-89
2022/04/20 02:04:28;;;;;;;48.75;26.17;;;;;;;1.54;94.98;98497.63;2340966;76;21524;-89
2022/04/20 02:07:30;;;;;;;40.63;24.55;;;;;;;1.46;95.25;98494.38;2341121;76;21027;-89
2022/04/20 02:10:32;;;;;;;45.70;26.30;;;;;;;1.47;95.92;98495.23;2341073;76;21020;-88
2022/04/20 02:13:34;;;;;;;48.60;26.15;;;;;;;1.49;96.31;98490.75;2341086;76;21023;-88
2022/04/20 02:16:36;;;;;;;55.20;29.67;;;;;;;1.41;95.98;98487.03;2240458;75;21239;-88
2022/04/20 02:19:38;;;;;;;58.15;30.62;;;;;;;1.36;96.19;98496.91;2227428;79;21005;-88
2022/04/20 02:22:40;;;;;;;55.12;29.67;;;;;;;1.44;96.92;98491.12;2227442;80;21075;-88
2022/04/20 02:25:42;;;;;;;57.78;31.10;;;;;;;1.53;97.30;98484.37;2230081;79;21017;-89
2022/04/20 02:28:43;;;;;;;56.42;30.70;;;;;;;1.42;97.46;98489.96;2203564;79;21043;-88
2022/04/20 02:31:45;;;;;;;49.80;29.90;;;;;;;1.46;98.39;98491.80;2228085;80;21052;-87
2022/04/20 02:34:47;;;;;;;53.70;29.00;;;;;;;1.46;98.63;98480.66;2228977;80;20929;-87
2022/04/20 02:37:49;;;;;;;55.83;30.40;;;;;;;1.49;99.52;98479.14;2228380;80;21039;-88
2022/04/20 02:40:51;;;;;;;51.48;30.25;;;;;;;1.40;99.11;98476.37;2225978;80;21559;-88
2022/04/20 02:43:52;;;;;;;47.20;28.75;;;;;;;1.40;99.01;98476.37;2226998;80;21448;-87
2022/04/20 02:46:54;;;;;;;43.13;27.62;;;;;;;1.43;98.47;98461.11;2226028;80;21033;-88
2022/04/20 02:49:56;;;;;;;45.83;27.55;;;;;;;1.42;96.82;98460.77;2225481;80;21009;-88
2022/04/20 02:52:58;;;;;;;45.17;25.32;;;;;;;1.48;96.71;98452.99;2225985;80;21037;-88
2022/04/20 02:56:00;;;;;;;45.20;26.25;;;;;;;1.53;96.55;98452.94;2225882;80;21012;-88
2022/04/20 02:59:02;;;;;;;35.58;23.65;;;;;;;1.67;97.63;98455.66;2225959;80;20973;-88
2022/04/20 03:02:03;;;;;;;42.50;26.77;;;;;;;1.79;98.39;98458.96;2225999;80;21068;-88
2022/04/20 03:05:05;;;;;;;58.75;31.12;;;;;;;1.92;98.67;98453.08;2225953;80;20961;-89
2022/04/20 03:08:07;;;;;;;41.75;27.15;;;;;;;1.94;99.30;98460.25;2225872;80;20961;-89
2022/04/20 03:11:09;;;;;;;41.98;24.82;;;;;;;2.10;99.58;98462.31;2225886;80;20984;-89
2022/04/20 03:14:10;;;;;;;41.42;25.27;;;;;;;2.23;98.99;98465.01;2226144;80;21037;-89
2022/04/20 03:17:12;;;;;;;37.98;25.50;;;;;;;2.25;98.67;98460.52;2222601;79;21016;-88
2022/04/20 03:20:14;;;;;;;37.85;24.95;;;;;;;2.28;98.17;98452.97;2221905;80;20957;-87
2022/04/20 03:23:16;;;;;;;42.50;26.33;;;;;;;2.32;97.52;98451.77;2221951;80;20913;-90
2022/04/20 03:26:18;;;;;;;39.45;24.63;;;;;;;2.26;97.38;98450.52;2221685;80;21015;-88
2022/04/20 03:29:20;;;;;;;46.28;27.40;;;;;;;2.17;97.40;98442.28;2222738;80;20959;-88
2022/04/20 03:32:21;;;;;;;43.98;25.35;;;;;;;2.18;97.50;98443.91;2222473;80;20940;-88
2022/04/20 03:35:23;;;;;;;42.70;26.20;;;;;;;2.15;97.61;98448.06;2221767;80;21033;-87
2022/04/20 03:38:25;;;;;;;43.75;27.50;;;;;;;2.21;98.08;98446.73;2221776;80;20967;-87
2022/04/20 03:41:27;;;;;;;42.23;24.65;;;;;;;2.26;98.45;98441.96;2221781;80;21046;-88
2022/04/20 03:44:29;;;;;;;44.03;27.55;;;;;;;2.27;98.95;98437.13;2221917;80;20988;-88
2022/04/20 03:47:31;;;;;;;41.30;25.55;;;;;;;2.32;98.73;98447.89;2221752;80;20991;-88
2022/04/20 03:50:32;;;;;;;44.88;27.93;;;;;;;2.30;98.51;98436.88;2221602;80;21079;-89
2022/04/20 03:53:34;;;;;;;47.90;28.35;;;;;;;2.21;98.88;98435.92;2221717;80;20928;-89
2022/04/20 03:59:56;;;;;;;49.25;27.52;;;;;;;2.30;99.56;98430.91;2222204;80;21540;-87
2022/04/20 04:02:58;;;;;;;46.23;27.73;;;;;;;2.36;99.58;98430.34;2221370;80;21098;-89
2022/04/20 04:06:00;;;;;;;47.88;28.57;;;;;;;2.42;100.00;98428.05;2221635;80;21509;-88
2022/04/20 04:09:02;;;;;;;45.75;29.40;;;;;;;2.53;100.00;98429.20;2221815;80;21034;-90
2022/04/20 04:12:04;;;;;;;44.58;26.97;;;;;;;2.59;100.00;98422.69;2221888;80;21424;-94
2022/04/20 04:15:06;;;;;;;50.55;29.80;;;;;;;2.67;100.00;98428.47;2221818;80;20936;-91
2022/04/20 04:18:07;;;;;;;50.73;29.30;;;;;;;2.73;99.79;98424.84;2221179;80;21054;-91
2022/04/20 04:21:09;;;;;;;54.88;29.25;;;;;;;2.73;99.24;98431.78;2221812;80;21533;-89
2022/04/20 04:24:34;;;;;;;48.55;29.48;;;;;;;2.79;99.33;98427.38;2222780;80;20957;-90
2022/04/20 04:27:15;;;;;;;44.48;29.15;;;;;;;2.74;99.50;98427.80;2220443;80;21067;-90
2022/04/20 04:30:16;;;;;;;47.25;29.02;;;;;;;2.74;99.57;98425.21;2222010;79;20971;-89
2022/04/20 04:33:18;;;;;;;45.70;29.42;;;;;;;2.77;99.95;98416.36;2221640;80;20993;-89
2022/04/20 04:36:20;;;;;;;41.92;24.98;;;;;;;2.87;100.00;98425.39;2221846;80;20948;-89
2022/04/20 04:39:21;;;;;;;44.00;28.95;;;;;;;2.98;100.00;98422.17;2222537;80;20960;-89
2022/04/20 04:42:23;;;;;;;45.12;27.48;;;;;;;3.04;100.00;98424.22;2222067;80;21044;-92
2022/04/20 04:48:48;;;;;;;45.40;28.55;;;;;;;3.10;99.70;98424.94;2223386;80;20972;-90
2022/04/20 04:51:49;;;;;;;44.90;27.95;;;;;;;3.12;99.74;98424.34;2225238;80;21534;-90
2022/04/20 04:54:50;;;;;;;46.33;27.00;;;;;;;3.19;100.00;98424.58;2224023;80;21435;-94
2022/04/20 04:57:52;;;;;;;49.65;28.38;;;;;;;3.28;100.00;98414.68;2229346;80;21091;-92
2022/04/20 05:00:54;;;;;;;44.67;27.25;;;;;;;3.47;99.96;98419.46;2230878;80;21059;-90
2022/04/20 05:03:55;;;;;;;38.78;24.80;;;;;;;3.49;99.26;98413.20;2232435;80;20981;-90
2022/04/20 05:06:57;;;;;;;41.00;26.97;;;;;;;3.59;99.38;98411.39;2231155;80;21080;-91
2022/04/20 05:09:59;;;;;;;42.50;28.80;;;;;;;3.63;98.77;98419.20;2230880;80;21019;-88
2022/04/20 05:13:00;;;;;;;44.25;27.70;;;;;;;3.70;98.83;98414.27;2233554;80;21048;-89
2022/04/20 05:16:02;;;;;;;43.70;27.00;;;;;;;3.74;98.90;98413.02;2234466;79;21039;-90
2022/04/20 05:19:04;;;;;;;43.08;27.07;;;;;;;3.84;98.90;98410.38;2239071;79;21016;-91
2022/04/20 05:22:06;;;;;;;36.75;24.10;;;;;;;3.92;98.37;98414.36;2238629;79;21120;-90
2022/04/20 05:25:07;;;;;;;43.65;26.23;;;;;;;4.00;98.11;98413.97;2238575;79;21047;-90
2022/04/20 05:28:09;;;;;;;39.60;26.45;;;;;;;4.00;97.64;98416.56;2239120;79;21024;-90
2022/04/20 05:31:11;;;;;;;40.92;26.85;;;;;;;4.05;98.09;98419.22;2239629;79;21004;-91
2022/04/20 05:34:13;;;;;;;43.42;27.07;;;;;;;4.13;98.18;98420.12;2238453;79;21068;-91
2022/04/20 05:43:55;;;;;;;43.87;28.60;;;;;;;4.69;97.34;98409.14;2238401;79;20965;-90
2022/04/20 05:46:57;;;;;;;42.98;28.32;;;;;;;4.73;96.36;98402.68;2238929;79;21088;-90
2022/04/20 05:49:58;;;;;;;43.00;27.32;;;;;;;4.64;95.85;98412.66;2241617;79;20980;-91
2022/04/20 05:53:00;;;;;;;40.35;26.68;;;;;;;4.68;96.02;98401.03;2238477;79;21016;-90
2022/04/20 05:56:02;;;;;;;41.25;26.48;;;;;;;4.72;95.98;98399.76;2238551;79;21067;-91
2022/04/20 05:59:04;;;;;;;41.23;26.07;;;;;;;4.75;95.87;98391.66;2238512;79;21012;-92
2022/04/20 06:02:06;;;;;;;38.67;24.23;;;;;;;4.86;95.76;98397.94;2238607;79;21008;-90
2022/04/20 06:05:08;;;;;;;38.80;26.12;;;;;;;4.99;94.69;98390.56;2238446;79;21048;-91
2022/04/20 06:08:09;;;;;;;41.42;26.50;;;;;;;5.04;94.94;98391.41;2238676;79;21056;-92
2022/04/20 06:11:11;;;;;;;39.85;25.25;;;;;;;5.08;93.89;98387.53;2238571;79;21004;-91
2022/04/20 06:14:13;;;;;;;36.33;24.02;;;;;;;5.06;94.27;98388.99;2239142;79;21031;-90
2022/04/20 06:17:15;;;;;;;38.88;23.90;;;;;;;5.13;93.70;98384.83;2236666;79;21091;-91
2022/04/20 06:20:16;;;;;;;36.53;23.80;;;;;;;5.03;92.78;98384.11;2232008;80;21004;-91
2022/04/20 06:23:20;;;;;;;34.43;23.12;;;;;;;5.04;93.44;98371.47;2231359;80;21072;-92
2022/04/20 06:26:22;;;;;;;31.12;20.45;;;;;;;5.04;93.76;98363.69;2233404;80;21503;-92
2022/04/20 06:29:23;;;;;;;34.35;24.87;;;;;;;5.06;94.45;98368.23;2231490;80;20989;-91
2022/04/20 06:32:25;;;;;;;35.80;22.10;;;;;;;5.06;94.57;98365.63;2231530;80;21073;-91
2022/04/20 06:35:27;;;;;;;37.80;25.85;;;;;;;5.01;94.64;98358.78;2198094;80;21092;-92
2022/04/20 06:38:29;;;;;;;38.20;25.32;;;;;;;4.94;95.23;98352.59;2231276;80;21064;-93
2022/04/20 06:41:31;;;;;;;37.42;23.85;;;;;;;4.99;95.64;98350.83;2231130;80;21100;-91
2022/04/20 06:44:33;;;;;;;34.65;24.15;;;;;;;5.16;96.66;98353.84;2231283;80;21060;-92
2022/04/20 06:47:35;;;;;;;33.83;23.85;;;;;;;5.31;96.80;98348.91;2231130;80;21012;-91
2022/04/20 06:50:37;;;;;;;34.33;23.30;;;;;;;5.39;97.38;98345.03;2231397;80;21072;-90
2022/04/20 07:00:20;;;;;;;37.30;24.00;;;;;;;5.38;97.70;98334.31;2231086;80;21544;-90
2022/04/20 07:03:22;;;;;;;37.85;24.92;;;;;;;5.38;97.78;98332.53;2231523;80;21547;-92
2022/04/20 07:06:23;;;;;;;39.10;24.92;;;;;;;5.36;97.94;98328.47;2231820;80;21024;-91
2022/04/20 07:09:25;;;;;;;34.63;23.25;;;;;;;5.37;98.82;98330.09;2231707;80;20984;-92
2022/04/20 07:12:27;;;;;;;33.50;21.23;;;;;;;5.46;99.38;98320.56;2231620;80;21003;-92
2022/04/20 07:15:29;;;;;;;32.75;20.10;;;;;;;5.58;99.97;98313.64;2231747;80;21033;-92
2022/04/20 07:18:31;;;;;;;28.23;21.62;;;;;;;5.76;100.00;98310.94;2221423;79;21553;-91
2022/04/20 07:21:33;;;;;;;26.52;20.08;;;;;;;5.92;100.00;98307.08;2217299;80;20993;-91
2022/04/20 07:24:35;;;;;;;28.60;21.50;;;;;;;6.11;100.00;98302.56;2217363;80;21001;-92
2022/04/20 07:27:37;;;;;;;26.62;20.30;;;;;;;6.25;100.00;98301.45;2217320;80;21044;-91
2022/04/20 07:30:39;;;;;;;26.25;18.10;;;;;;;6.47;100.00;98305.17;2218940;80;20954;-91
2022/04/20 07:33:41;;;;;;;25.12;18.70;;;;;;;6.63;99.68;98300.45;2219307;78;21104;-91
2022/04/20 07:36:43;;;;;;;24.40;18.07;;;;;;;6.70;99.62;98305.34;2221260;78;20969;-92
2022/04/20 07:39:45;;;;;;;26.07;18.48;;;;;;;6.90;99.50;98304.98;2221510;78;21417;-89
2022/04/20 07:42:47;;;;;;;32.78;22.02;;;;;;;6.96;98.69;98302.53;2221477;80;21041;-90
2022/04/20 07:45:49;;;;;;;33.18;23.95;;;;;;;6.99;98.55;98300.08;2192904;80;20993;-90
2022/04/20 07:48:51;;;;;;;32.10;23.70;;;;;;;7.12;98.79;98291.23;2219381;80;21499;-89
2022/04/20 07:51:53;;;;;;;31.52;22.13;;;;;;;7.27;95.97;98296.57;2219669;80;20930;-89
2022/04/20 07:54:56;;;;;;;28.73;22.27;;;;;;;7.42;95.77;98301.41;2219413;80;21008;-90
2022/04/20 07:57:58;;;;;;;31.25;23.02;;;;;;;7.45;94.51;98301.06;2217405;80;20994;-89
2022/04/20 08:01:00;;;;;;;34.15;25.52;;;;;;;7.57;94.44;98297.08;2217253;80;20965;-90
2022/04/20 08:04:02;;;;;;;32.60;24.07;;;;;;;7.68;94.65;98295.42;2217025;80;21480;-89
2022/04/20 08:07:04;;;;;;;31.10;20.85;;;;;;;7.69;94.19;98297.05;2216998;80;22048;-90
2022/04/20 08:10:06;;;;;;;23.18;17.92;;;;;;;7.74;93.87;98295.70;2217008;80;21045;-90
2022/04/20 08:16:11;;;;;;;26.25;20.80;;;;;;;7.87;93.24;98299.88;2102465;84;21120;-91
2022/04/20 08:19:13;;;;;;;26.40;20.30;;;;;;;7.98;92.86;98301.59;2104732;83;21090;-90
2022/04/20 08:22:15;;;;;;;27.50;21.37;;;;;;;8.05;92.29;98294.39;2105195;85;21056;-91
2022/04/20 08:25:18;;;;;;;30.12;20.88;;;;;;;8.15;92.13;98288.45;2105314;85;21579;-92
2022/04/20 08:28:20;;;;;;;25.17;20.32;;;;;;;8.42;91.90;98285.83;2105322;85;21531;-91
2022/04/20 08:31:22;;;;;;;25.72;18.85;;;;;;;8.65;90.76;98277.45;2105799;85;21532;-90
2022/04/20 08:34:24;;;;;;;25.95;20.08;;;;;;;8.82;88.56;98284.14;2105401;85;22201;-90
2022/04/20 08:37:26;;;;;;;23.60;18.90;;;;;;;8.96;89.68;98282.55;2105831;85;21040;-90
2022/04/20 08:40:28;;;;;;;27.00;20.15;;;;;;;9.29;88.77;98279.55;2106232;85;20997;-90
2022/04/20 08:43:30;;;;;;;23.40;19.12;;;;;;;9.58;86.85;98281.30;2107478;85;21028;-91
2022/04/20 08:46:32;;;;;;;26.97;22.55;;;;;;;9.84;86.61;98276.38;2107550;85;21009;-91
2022/04/20 08:49:34;;;;;;;24.80;19.85;;;;;;;10.03;84.79;98280.69;2105328;85;21552;-92
2022/04/20 08:52:41;;;;;;;30.25;22.37;;;;;;;10.10;83.07;98279.76;2137502;80;21159;-92
2022/04/20 08:55:43;;;;;;;19.77;16.85;;;;;;;10.01;82.46;98276.95;2235006;80;21016;-90
2022/04/20 08:58:45;;;;;;;36.13;26.20;;;;;;;10.00;81.48;98274.03;2232773;80;20965;-92
2022/04/20 09:01:47;;;;;;;25.25;20.48;;;;;;;9.91;79.01;98272.03;2231230;80;21587;-91
2022/04/20 09:04:49;;;;;;;24.10;18.98;;;;;;;9.74;79.01;98271.94;2233942;80;21084;-92
2022/04/20 09:07:52;;;;;;;21.17;17.10;;;;;;;9.55;79.85;98272.03;2235301;80;20988;-92
2022/04/20 09:10:53;;;;;;;28.92;22.73;;;;;;;9.42;79.98;98264.05;2231344;80;21029;-92
2022/04/20 09:13:55;;;;;;;31.20;23.77;;;;;;;9.34;80.51;98268.88;2231161;80;21049;-92
2022/04/20 09:17:01;;;;;;;21.93;17.95;;;;;;;9.19;80.23;98269.38;2230230;78;21000;-92
2022/04/20 09:20:01;;;;;;;22.00;17.20;;;;;;;8.99;79.56;98269.12;2216751;80;21069;-93
2022/04/20 09:23:03;;;;;;;19.17;16.07;;;;;;;8.93;80.22;98265.91;2216982;80;21052;-92
2022/04/20 09:26:05;;;;;;;20.75;15.40;;;;;;;8.79;80.88;98262.31;2217404;80;21013;-92
2022/04/20 09:29:08;;;;;;;17.55;15.25;;;;;;;8.77;81.62;98265.58;2218748;80;21085;-91
2022/04/20 09:32:10;;;;;;;17.35;15.13;;;;;;;8.78;81.69;98259.39;2217070;80;21009;-90
2022/04/20 09:35:12;;;;;;;13.35;11.93;;;;;;;8.94;81.72;98258.88;2217295;80;21024;-87
2022/04/20 09:38:15;;;;;;;15.05;13.48;;;;;;;9.10;80.84;98258.71;2217232;80;21076;-85
2022/04/20 09:41:17;;;;;;;15.45;13.40;;;;;;;9.27;81.57;98256.22;2188410;80;21068;-89
2022/04/20 09:44:22;;;;;;;14.95;13.40;;;;;;;9.48;81.57;98258.58;2216986;80;21563;-87
2022/04/20 09:50:43;;;;;;;13.70;12.30;;;;;;;9.69;81.75;98262.06;2217203;80;21124;-89
2022/04/20 09:53:45;;;;;;;13.22;11.48;;;;;;;9.87;81.74;98257.69;2217074;80;21503;-87
2022/04/20 09:56:47;;;;;;;12.90;11.60;;;;;;;9.83;80.51;98259.56;2217148;80;20954;-86
2022/04/20 09:59:49;;;;;;;12.37;10.35;;;;;;;9.84;81.55;98261.99;2217059;80;20974;-86
2022/04/20 10:02:51;;;;;;;10.70;9.68;;;;;;;9.88;80.43;98265.88;2216977;80;21096;-90
2022/04/20 10:05:53;;;;;;;10.70;9.70;;;;;;;9.82;79.91;98259.26;2216884;80;21050;-85
2022/04/20 10:08:55;;;;;;;9.80;8.90;;;;;;;9.77;80.36;98266.84;2216993;80;21045;-88
2022/04/20 10:11:57;;;;;;;10.55;9.55;;;;;;;9.58;80.42;98265.13;2216945;80;21112;-86
2022/04/20 10:18:19;;;;;;;9.83;8.90;;;;;;;9.25;80.06;98271.28;2223402;80;21635;-87
2022/04/20 10:21:21;;;;;;;10.15;9.15;;;;;;;9.11;81.29;98282.03;2232105;80;21031;-87
2022/04/20 10:24:23;;;;;;;10.20;9.20;;;;;;;9.04;82.10;98281.13;2232322;80;21004;-86
2022/04/20 10:27:26;;;;;;;12.55;10.28;;;;;;;9.08;82.59;98286.32;2232332;80;20969;-86
2022/04/20 10:30:28;;;;;;;10.78;9.68;;;;;;;9.07;82.67;98281.28;2232908;80;20969;-86
2022/04/20 10:33:31;;;;;;;11.68;9.28;;;;;;;9.13;83.39;98280.54;2232273;80;20994;-87
2022/04/20 10:36:33;;;;;;;10.93;9.85;;;;;;;9.15;82.55;98275.16;2232166;80;21007;-87
2022/04/20 10:39:36;;;;;;;12.10;10.58;;;;;;;9.04;82.59;98281.13;2232142;80;21039;-87
2022/04/20 10:42:39;;;;;;;11.35;10.23;;;;;;;8.96;82.94;98285.16;2232385;80;20997;-87
2022/04/20 10:45:41;;;;;;;11.20;10.03;;;;;;;8.97;82.90;98281.55;2232105;80;21031;-86
2022/04/20 10:48:43;;;;;;;10.55;9.53;;;;;;;8.85;82.09;98272.52;2232162;80;21012;-85
2022/04/20 10:51:46;;;;;;;10.40;9.40;;;;;;;8.75;82.69;98281.11;2232255;80;21023;-87
2022/04/20 10:54:48;;;;;;;11.97;10.18;;;;;;;8.68;83.32;98274.97;2232406;80;21005;-88
2022/04/20 10:57:50;;;;;;;11.83;10.50;;;;;;;8.60;83.57;98273.77;2232164;80;21032;-87
2022/04/20 11:00:52;;;;;;;12.53;10.48;;;;;;;8.59;83.96;98284.67;2232170;80;21059;-87
2022/04/20 11:03:54;;;;;;;9.63;8.70;;;;;;;8.60;83.71;98286.33;2232142;80;20997;-85
2022/04/20 11:06:57;;;;;;;11.55;10.50;;;;;;;8.62;83.93;98274.40;2232126;80;20996;-86
2022/04/20 11:09:58;;;;;;;11.25;10.08;;;;;;;8.58;83.88;98279.14;2232143;80;20989;-85
2022/04/20 11:19:41;;;;;;;11.10;9.28;;;;;;;8.26;84.50;98265.87;2232184;79;21100;-86
2022/04/20 11:22:43;;;;;;;10.20;9.30;;;;;;;8.20;84.77;98273.08;2232812;80;21095;-86
2022/04/20 11:25:45;;;;;;;12.10;10.25;;;;;;;8.19;84.78;98280.09;2231717;80;21032;-87
2022/04/20 11:28:47;;;;;;;11.88;10.63;;;;;;;8.08;85.03;98277.09;2232162;80;21570;-86
2022/04/20 11:31:49;;;;;;;10.78;9.68;;;;;;;8.05;85.60;98278.75;2231993;80;21075;-87
2022/04/20 11:34:51;;;;;;;12.18;10.98;;;;;;;8.07;86.43;98276.77;2232058;80;21012;-86
2022/04/20 11:37:53;;;;;;;13.72;11.43;;;;;;;8.08;87.01;98282.30;2232083;80;20977;-86
2022/04/20 11:40:55;;;;;;;14.43;12.50;;;;;;;8.02;87.03;98278.58;2232016;80;21028;-87
2022/04/20 11:43:58;;;;;;;14.05;12.55;;;;;;;7.97;87.07;98287.44;2232078;80;21042;-86
2022/04/20 11:47:01;;;;;;;12.90;11.57;;;;;;;7.94;87.43;98286.45;2232035;80;20969;-87
2022/04/20 11:50:03;;;;;;;15.05;12.85;;;;;;;7.94;87.57;98287.76;2232154;80;21479;-87
2022/04/20 11:53:05;;;;;;;13.45;12.15;;;;;;;7.95;88.17;98287.61;2231973;80;20977;-87
2022/04/20 11:56:10;;;;;;;14.13;12.13;;;;;;;7.89;88.44;98280.97;2231967;80;21522;-87
2022/04/20 11:59:12;;;;;;;13.53;12.13;;;;;;;7.85;88.17;98285.69;2232041;80;20977;-87
2022/04/20 12:02:14;;;;;;;13.22;11.88;;;;;;;7.82;88.23;98289.14;2232390;80;20996;-88
2022/04/20 12:05:16;;;;;;;13.20;11.80;;;;;;;7.76;88.87;98283.31;2232417;80;21519;-87
2022/04/20 12:08:18;;;;;;;15.65;11.75;;;;;;;7.75;89.08;98289.02;2232337;80;20960;-89
2022/04/20 12:11:20;;;;;;;14.30;12.10;;;;;;;7.75;89.03;98291.62;2232266;80;21527;-86
2022/04/20 12:14:25;;;;;;;13.05;11.48;;;;;;;7.73;89.17;98287.57;2232023;80;20973;-87
2022/04/20 12:17:27;;;;;;;16.50;13.25;;;;;;;7.68;89.74;98290.21;2232025;80;21479;-88
2022/04/20 12:20:29;;;;;;;15.48;12.15;;;;;;;7.57;89.66;98287.16;2232009;80;21472;-87
2022/04/20 12:23:32;;;;;;;13.68;12.28;;;;;;;7.53;89.67;98289.30;2231812;80;21082;-86
2022/04/20 12:26:34;;;;;;;14.90;13.35;;;;;;;7.55;90.31;98287.83;2232394;80;20972;-87
2022/04/20 12:29:36;;;;;;;14.87;10.68;;;;;;;7.58;90.98;98297.89;2236457;78;20949;-87
2022/04/20 12:32:38;;;;;;;13.90;11.38;;;;;;;7.57;90.47;98294.97;2235914;78;20977;-86
2022/04/20 12:35:40;;;;;;;13.80;11.25;;;;;;;7.51;90.43;98294.37;2233095;80;20965;-86
2022/04/20 12:38:42;;;;;;;14.07;12.35;;;;;;;7.52;90.62;98306.41;2232744;80;21040;-86
2022/04/20 12:41:45;;;;;;;12.78;11.45;;;;;;;7.52;90.83;98302.50;2232272;80;20996;-87
2022/04/20 12:44:48;;;;;;;15.50;12.70;;;;;;;7.51;91.44;98300.39;2231902;80;21444;-87
2022/04/20 12:47:50;;;;;;;15.90;13.20;;;;;;;7.52;91.00;98302.50;2231997;80;21069;-86
2022/04/20 12:50:55;;;;;;;16.27;13.72;;;;;;;7.58;91.43;98300.50;2231889;80;20933;-86
2022/04/20 12:53:55;;;;;;;15.63;13.95;;;;;;;7.58;91.34;98308.31;2232177;79;21080;-87
2022/04/20 13:03:39;;;;;;;17.73;14.10;;;;;;;7.55;91.81;98302.96;2232309;80;21052;-86
2022/04/20 13:06:41;;;;;;;19.12;14.40;;;;;;;7.51;91.98;98310.81;2232363;80;21060;-86
2022/04/20 13:09:43;;;;;;;18.30;14.35;;;;;;;7.49;92.36;98308.84;2232797;80;21567;-87
2022/04/20 13:12:45;;;;;;;16.32;13.13;;;;;;;7.50;92.95;98301.84;2232268;80;21012;-87
2022/04/20 13:15:47;;;;;;;16.02;12.15;;;;;;;7.48;92.75;98307.72;2232172;80;21281;-87
2022/04/20 13:18:48;;;;;;;14.98;12.43;;;;;;;7.44;92.24;98307.25;2232710;80;21077;-87
2022/04/20 13:21:51;;;;;;;13.95;12.05;;;;;;;7.36;92.09;98310.70;2232219;80;21092;-86
2022/04/20 13:28:13;;;;;;;16.75;13.60;;;;;;;7.39;93.34;98314.25;2232702;80;21092;-87
2022/04/20 13:31:15;;;;;;;17.07;12.47;;;;;;;7.41;93.25;98303.70;2232479;80;21040;-89
2022/04/20 13:34:17;;;;;;;16.57;13.32;;;;;;;7.53;93.36;98319.75;2232663;80;21004;-90
2022/04/20 13:37:19;;;;;;;15.58;12.50;;;;;;;7.51;93.26;98317.81;2232634;80;21483;-86
2022/04/20 13:40:20;;;;;;;18.60;14.30;;;;;;;7.56;93.27;98314.20;2232988;80;20992;-88
2022/04/20 13:43:23;;;;;;;17.60;14.05;;;;;;;7.53;94.04;98321.05;2232767;80;21782;-92
2022/04/20 13:46:24;;;;;;;17.30;15.20;;;;;;;7.52;92.97;98320.74;2232469;80;20993;-87
2022/04/20 13:49:27;;;;;;;16.37;13.38;;;;;;;7.56;93.12;98325.92;2203657;80;20999;-88
2022/04/20 13:52:29;;;;;;;17.80;14.10;;;;;;;7.60;93.11;98326.73;2232342;80;21507;-88
2022/04/20 13:55:31;;;;;;;18.17;14.03;;;;;;;7.69;92.59;98330.92;2232805;80;21510;-86
2022/04/20 13:58:35;;;;;;;20.25;17.42;;;;;;;7.82;92.81;98327.75;2232185;80;21056;-88
2022/04/20 14:01:36;;;;;;;21.73;18.00;;;;;;;7.92;92.80;98330.95;2232037;80;20977;-85
2022/04/20 14:04:38;;;;;;;21.95;16.32;;;;;;;8.02;92.79;98326.81;2232264;80;20980;-86
2022/04/20 14:07:40;;;;;;;22.22;18.00;;;;;;;8.06;91.93;98324.20;2232273;80;21080;-87
2022/04/20 14:10:42;;;;;;;20.90;17.23;;;;;;;8.08;91.87;98327.44;2232354;80;21068;-86
2022/04/20 14:13:44;;;;;;;20.27;16.75;;;;;;;8.11;91.75;98333.61;2232945;80;21029;-88
2022/04/20 14:16:45;;;;;;;25.77;20.10;;;;;;;8.13;91.37;98329.02;2232281;80;21452;-86
2022/04/20 14:19:47;;;;;;;24.32;19.52;;;;;;;8.16;91.51;98324.78;2231991;80;21052;-88
2022/04/20 14:22:49;;;;;;;30.50;27.30;;;;;;;8.20;90.97;98326.05;2233325;80;21027;-88
2022/04/20 14:32:31;;;;;;;25.85;20.60;;;;;;;8.21;91.00;98325.55;2232445;80;21560;-89
2022/04/20 14:35:33;;;;;;;26.95;21.42;;;;;;;8.21;91.18;98319.84;2232214;80;20949;-87
2022/04/20 14:38:35;;;;;;;29.87;22.27;;;;;;;8.24;90.88;98319.52;2232349;80;21068;-87
2022/04/20 14:41:37;;;;;;;25.48;18.60;;;;;;;8.34;90.68;98318.47;2232164;80;21577;-87
2022/04/20 14:44:39;;;;;;;23.35;18.50;;;;;;;8.31;90.53;98316.19;2232224;80;21507;-87
2022/04/20 14:47:41;;;;;;;19.75;15.45;;;;;;;8.30;89.95;98321.09;2232141;80;20992;-87
2022/04/20 14:50:43;;;;;;;21.68;17.45;;;;;;;8.26;90.19;98321.94;2232275;80;21504;-86
2022/04/20 14:53:45;;;;;;;21.20;16.70;;;;;;;8.22;90.58;98320.16;2232233;80;21080;-88
2022/04/20 14:56:47;;;;;;;21.87;16.75;;;;;;;8.26;90.57;98320.64;2232141;80;21015;-88
2022/04/20 14:59:51;;;;;;;20.23;14.68;;;;;;;8.21;90.41;98319.03;2233183;80;20965;-88
2022/04/20 15:02:55;;;;;;;12.40;10.55;;;;;;;8.24;90.43;98321.31;2232506;80;21005;-88